Time;durP1;ratioP1;P1;durP2;ratioP2;P2;SDS_P1;SDS_P2;PMS_P1;PMS_P2;Temp;Humidity;BMP_temperature;BMP_pressure;BME280_temperature;BME280_humidity;BME280_pressure;Samples;Min_cycle;Max_cycle;Signal;HPM_P1;HPM_P2
2023/06/18 00:01:48;;;;;;;10.27;7.30;;;;;;;;;;6181507;28;20069;-78
2023/06/18 00:04:50;;;;;;;10.45;7.55;;;;;;;;;;6196341;28;20042;-78
2023/06/18 00:07:51;;;;;;;10.10;7.03;;;;;;;;;;6183062;28;20086;-79
2023/06/18 00:10:53;;;;;;;9.98;6.97;;;;;;;;;;6199707;28;20121;-78
2023/06/18 00:13:55;;;;;;;9.02;6.18;;;;;;;;;;6184483;28;20176;-78
2023/06/18 00:16:56;;;;;;;8.77;6.38;;;;;;;;;;6194144;28;20142;-78
2023/06/18 00:19:58;;;;;;;9.30;5.82;;;;;;;;;;6191861;28;20065;-78
2023/06/18 00:23:00;;;;;;;6.63;5.00;;;;;;;;;;6200876;28;20089;-78
2023/06/18 00:26:02;;;;;;;8.13;6.35;;;;;;;;;;6183711;28;20054;-78
2023/06/18 00:29:04;;;;;;;11.38;6.72;;;;;;;;;;6193823;28;20049;-78
2023/06/18 00:32:09;;;;;;;9.02;6.82;;;;;;;;;;6177013;28;20078;-78
2023/06/18 00:35:11;;;;;;;11.20;6.90;;;;;;;;;;6200571;28;20129;-78
2023/06/18 00:38:16;;;;;;;10.85;7.22;;;;;;;;;;6184413;28;20060;-77
2023/06/18 00:41:18;;;;;;;9.40;6.97;;;;;;;;;;6197670;28;20042;-78
2023/06/18 00:44:21;;;;;;;8.80;6.90;;;;;;;;;;6193253;28;20049;-77
2023/06/18 00:47:23;;;;;;;10.70;7.57;;;;;;;;;;6189970;28;20045;-77
2023/06/18 00:50:26;;;;;;;10.03;7.43;;;;;;;;;;6196699;28;20057;-78
2023/06/18 00:53:30;;;;;;;10.73;6.93;;;;;;;;;;6200085;28;20135;-77
2023/06/18 00:56:32;;;;;;;11.00;6.78;;;;;;;;;;6192719;28;20049;-79
2023/06/18 00:59:37;;;;;;;8.88;6.63;;;;;;;;;;6184961;28;20058;-78
2023/06/18 01:02:45;;;;;;;8.80;6.22;;;;;;;;;;6184872;28;20539;-77
2023/06/18 01:05:56;;;;;;;10.50;6.28;;;;;;;;;;6201340;28;20168;-77
2023/06/18 01:09:01;;;;;;;8.85;6.57;;;;;;;;;;6182159;28;20053;-78
2023/06/18 01:12:03;;;;;;;9.90;6.72;;;;;;;;;;6184548;28;20041;-78
2023/06/18 01:15:05;;;;;;;9.35;6.75;;;;;;;;;;6184183;28;20076;-78
2023/06/18 01:18:08;;;;;;;8.60;6.07;;;;;;;;;;6187291;28;20412;-78
2023/06/18 01:21:13;;;;;;;8.80;6.28;;;;;;;;;;6199708;28;20038;-77
2023/06/18 01:24:23;;;;;;;8.55;6.00;;;;;;;;;;6194770;28;21257;-78
2023/06/18 01:27:27;;;;;;;9.15;6.40;;;;;;;;;;6188711;28;20052;-77
2023/06/18 01:30:29;;;;;;;8.70;6.65;;;;;;;;;;6199046;28;20053;-78
2023/06/18 01:33:33;;;;;;;9.13;6.57;;;;;;;;;;6202617;28;20057;-77
2023/06/18 01:36:57;;;;;;;8.43;5.97;;;;;;;;;;6210466;28;20054;-77
2023/06/18 01:40:12;;;;;;;9.07;6.15;;;;;;;;;;6196410;28;20053;-77
2023/06/18 01:43:21;;;;;;;11.05;7.10;;;;;;;;;;6195928;28;20671;-77
2023/06/18 01:46:26;;;;;;;10.90;6.60;;;;;;;;;;6190312;28;20424;-77
2023/06/18 01:49:29;;;;;;;8.57;6.35;;;;;;;;;;6185768;28;20061;-77
2023/06/18 01:52:34;;;;;;;8.65;6.53;;;;;;;;;;6197778;28;20131;-77
2023/06/18 01:55:37;;;;;;;12.23;6.95;;;;;;;;;;6182921;28;20141;-78
2023/06/18 01:58:42;;;;;;;8.88;6.43;;;;;;;;;;6205787;28;20052;-77
2023/06/18 02:01:46;;;;;;;8.80;6.40;;;;;;;;;;6183999;28;20130;-77
2023/06/18 02:04:47;;;;;;;8.10;6.38;;;;;;;;;;6199063;28;20072;-77
2023/06/18 02:07:49;;;;;;;10.25;6.60;;;;;;;;;;6197155;28;20519;-77
2023/06/18 02:10:51;;;;;;;9.50;6.53;;;;;;;;;;6184803;28;20052;-78
2023/06/18 02:13:52;;;;;;;8.02;6.22;;;;;;;;;;6200373;28;20539;-77
2023/06/18 02:16:55;;;;;;;9.13;6.30;;;;;;;;;;6177316;28;20060;-78
2023/06/18 02:19:59;;;;;;;10.88;6.78;;;;;;;;;;6187249;28;20524;-79
2023/06/18 02:23:00;;;;;;;9.00;6.88;;;;;;;;;;6200338;28;20538;-78
2023/06/18 02:26:03;;;;;;;10.45;6.65;;;;;;;;;;6187365;28;20527;-77
2023/06/18 02:29:05;;;;;;;9.70;6.30;;;;;;;;;;6182075;28;20041;-77
2023/06/18 02:32:07;;;;;;;9.55;6.63;;;;;;;;;;6167643;28;20522;-78
2023/06/18 02:35:09;;;;;;;9.50;6.50;;;;;;;;;;6199893;28;20047;-78
2023/06/18 02:38:11;;;;;;;10.60;6.47;;;;;;;;;;6176169;28;20128;-78
2023/06/18 02:41:12;;;;;;;11.65;7.15;;;;;;;;;;6178308;28;20038;-77
2023/06/18 02:44:15;;;;;;;8.45;6.43;;;;;;;;;;6188637;28;20042;-77
2023/06/18 02:47:17;;;;;;;8.95;6.80;;;;;;;;;;6165987;28;20042;-78
2023/06/18 02:50:19;;;;;;;10.02;6.82;;;;;;;;;;6176740;28;20045;-77
2023/06/18 02:53:22;;;;;;;;;;;;;;;;;;6187270;28;20050;-78
2023/06/18 02:56:23;;;;;;;10.70;7.20;;;;;;;;;;6203198;28;19964;-78
2023/06/18 02:59:26;;;;;;;8.77;6.20;;;;;;;;;;6189084;28;20078;-78
2023/06/18 03:02:28;;;;;;;10.35;7.32;;;;;;;;;;6175075;28;20053;-77
2023/06/18 03:05:30;;;;;;;9.95;6.90;;;;;;;;;;6182841;28;20052;-78
2023/06/18 03:08:32;;;;;;;10.40;7.35;;;;;;;;;;6189231;28;20049;-77
2023/06/18 03:11:34;;;;;;;10.02;6.70;;;;;;;;;;6167920;28;20042;-79
2023/06/18 03:14:38;;;;;;;9.93;7.10;;;;;;;;;;6199785;28;20396;-78
2023/06/18 03:17:40;;;;;;;9.80;6.95;;;;;;;;;;6179696;28;20784;-77
2023/06/18 03:20:42;;;;;;;10.77;6.72;;;;;;;;;;6184161;28;20041;-77
2023/06/18 03:23:44;;;;;;;10.82;6.90;;;;;;;;;;6182001;28;20049;-78
2023/06/18 03:26:46;;;;;;;9.77;6.70;;;;;;;;;;6196793;28;20046;-76
2023/06/18 03:29:50;;;;;;;9.07;6.50;;;;;;;;;;6180226;28;20512;-77
2023/06/18 03:32:55;;;;;;;10.23;7.03;;;;;;;;;;6182435;28;20069;-77
2023/06/18 03:36:00;;;;;;;10.10;6.75;;;;;;;;;;6201955;28;20072;-79
2023/06/18 03:39:06;;;;;;;11.60;6.97;;;;;;;;;;6181457;28;20052;-78
2023/06/18 03:42:08;;;;;;;11.57;7.25;;;;;;;;;;6182768;28;20042;-78
2023/06/18 03:45:10;;;;;;;12.23;7.03;;;;;;;;;;6198667;28;20038;-77
2023/06/18 03:48:11;;;;;;;11.27;6.47;;;;;;;;;;6181728;28;20060;-77
2023/06/18 03:51:18;;;;;;;10.95;6.68;;;;;;;;;;6171439;28;20047;-77
2023/06/18 03:54:20;;;;;;;9.77;7.10;;;;;;;;;;6187028;28;20043;-77
2023/06/18 03:57:21;;;;;;;9.57;6.80;;;;;;;;;;6211129;28;20093;-77
2023/06/18 04:00:23;;;;;;;9.85;6.68;;;;;;;;;;6192625;28;20041;-77
2023/06/18 04:03:26;;;;;;;10.00;7.03;;;;;;;;;;6198828;28;20066;-77
2023/06/18 04:06:28;;;;;;;10.70;7.18;;;;;;;;;;6199482;28;20535;-77
2023/06/18 04:09:30;;;;;;;9.02;6.93;;;;;;;;;;6188798;28;20082;-78
2023/06/18 04:12:32;;;;;;;9.63;6.82;;;;;;;;;;6171034;28;20539;-77
2023/06/18 04:15:34;;;;;;;11.27;7.25;;;;;;;;;;6180000;28;20054;-77
2023/06/18 04:18:36;;;;;;;10.35;7.50;;;;;;;;;;6181602;28;20046;-76
2023/06/18 04:21:38;;;;;;;9.48;7.07;;;;;;;;;;6185704;28;20042;-77
2023/06/18 04:24:41;;;;;;;11.63;7.20;;;;;;;;;;6186950;28;20512;-77
2023/06/18 04:27:45;;;;;;;9.57;7.10;;;;;;;;;;6178628;28;20043;-78
2023/06/18 04:30:47;;;;;;;10.80;7.30;;;;;;;;;;6174507;28;20526;-79
2023/06/18 04:33:49;;;;;;;10.70;7.68;;;;;;;;;;6166947;28;20045;-77
2023/06/18 04:36:51;;;;;;;10.85;6.97;;;;;;;;;;6166720;28;20107;-77
2023/06/18 04:39:54;;;;;;;13.13;7.15;;;;;;;;;;6177613;28;20054;-77
2023/06/18 04:42:57;;;;;;;10.38;7.20;;;;;;;;;;6185741;28;20568;-77
2023/06/18 04:46:06;;;;;;;11.50;7.00;;;;;;;;;;6182674;28;20529;-77
2023/06/18 04:49:08;;;;;;;11.07;7.32;;;;;;;;;;6195751;28;20041;-77
2023/06/18 04:52:10;;;;;;;9.98;7.13;;;;;;;;;;6198776;28;20431;-77
2023/06/18 04:55:13;;;;;;;;;;;;;;;;;;6175905;28;20042;-77
2023/06/18 04:58:16;;;;;;;8.63;6.53;;;;;;;;;;6189730;28;19928;-79
2023/06/18 05:01:20;;;;;;;10.68;6.82;;;;;;;;;;6168391;28;20865;-77
2023/06/18 05:04:22;;;;;;;9.25;6.88;;;;;;;;;;6187351;28;20181;-77
2023/06/18 05:07:24;;;;;;;9.50;7.30;;;;;;;;;;6167765;28;20046;-78
2023/06/18 05:10:26;;;;;;;10.07;7.20;;;;;;;;;;6196961;28;20052;-79
2023/06/18 05:13:28;;;;;;;12.30;7.53;;;;;;;;;;6188119;28;20045;-77
2023/06/18 05:16:30;;;;;;;9.38;7.15;;;;;;;;;;6188801;28;20054;-77
2023/06/18 05:19:32;;;;;;;11.35;7.40;;;;;;;;;;6176517;28;20045;-77
2023/06/18 05:22:34;;;;;;;11.13;7.25;;;;;;;;;;6195942;28;20129;-78
2023/06/18 05:25:37;;;;;;;10.95;7.97;;;;;;;;;;6181495;28;20050;-78
2023/06/18 05:28:39;;;;;;;;;;;;;;;;;;6173877;28;20049;-79
2023/06/18 05:31:41;;;;;;;11.02;7.30;;;;;;;;;;6187736;28;19991;-79
2023/06/18 05:34:50;;;;;;;9.45;7.65;;;;;;;;;;6188537;28;20049;-77
2023/06/18 05:37:52;;;;;;;10.32;7.03;;;;;;;;;;6184040;28;20534;-77
2023/06/18 05:40:53;;;;;;;11.15;7.30;;;;;;;;;;6171819;28;20118;-79
2023/06/18 05:43:58;;;;;;;9.73;7.57;;;;;;;;;;6186128;28;20424;-79
2023/06/18 05:47:00;;;;;;;10.65;7.50;;;;;;;;;;6202026;28;20045;-80
2023/06/18 05:50:03;;;;;;;12.20;7.63;;;;;;;;;;6185002;28;20060;-78
2023/06/18 05:53:05;;;;;;;10.90;7.80;;;;;;;;;;6183811;28;20061;-78
2023/06/18 05:56:07;;;;;;;12.77;7.10;;;;;;;;;;6166806;28;20050;-78
2023/06/18 05:59:08;;;;;;;10.02;7.40;;;;;;;;;;6202156;28;20042;-80
2023/06/18 06:02:15;;;;;;;11.02;7.85;;;;;;;;;;6182225;28;20046;-80
2023/06/18 06:05:17;;;;;;;10.60;7.40;;;;;;;;;;6182645;28;20049;-79
2023/06/18 06:08:19;;;;;;;9.27;7.40;;;;;;;;;;6189304;28;21033;-78
2023/06/18 06:11:26;;;;;;;10.00;7.45;;;;;;;;;;6183289;28;20127;-78
2023/06/18 06:14:28;;;;;;;9.13;7.03;;;;;;;;;;6178057;28;20161;-78
2023/06/18 06:17:30;;;;;;;11.00;7.80;;;;;;;;;;6180829;28;20045;-78
2023/06/18 06:20:32;;;;;;;9.57;7.28;;;;;;;;;;6188787;28;20481;-79
2023/06/18 06:23:34;;;;;;;10.67;7.53;;;;;;;;;;6186380;28;20168;-80
2023/06/18 06:26:36;;;;;;;9.15;7.18;;;;;;;;;;6187311;28;20165;-78
2023/06/18 06:29:39;;;;;;;9.23;7.67;;;;;;;;;;6177691;28;20039;-78
2023/06/18 06:32:40;;;;;;;10.13;7.32;;;;;;;;;;6188310;28;20050;-80
2023/06/18 06:35:42;;;;;;;10.50;7.85;;;;;;;;;;6175085;28;20082;-79
2023/06/18 06:38:46;;;;;;;9.05;7.25;;;;;;;;;;6178555;28;20132;-77
2023/06/18 06:41:48;;;;;;;9.10;7.03;;;;;;;;;;6185381;28;20052;-78
2023/06/18 06:44:49;;;;;;;8.52;7.00;;;;;;;;;;6188332;28;20050;-78
2023/06/18 06:48:04;;;;;;;9.43;7.43;;;;;;;;;;6176589;28;20042;-78
2023/06/18 06:51:21;;;;;;;10.05;6.38;;;;;;;;;;6188400;28;20188;-79
2023/06/18 06:54:26;;;;;;;10.70;6.95;;;;;;;;;;6167230;28;20042;-78
2023/06/18 06:57:28;;;;;;;8.75;6.88;;;;;;;;;;6197982;28;20049;-79
2023/06/18 07:00:30;;;;;;;9.35;6.72;;;;;;;;;;6173432;28;20475;-82
2023/06/18 07:03:32;;;;;;;10.07;7.40;;;;;;;;;;6196438;28;20073;-78
2023/06/18 07:06:33;;;;;;;8.60;6.93;;;;;;;;;;6187640;28;20045;-79
2023/06/18 07:09:35;;;;;;;9.45;7.10;;;;;;;;;;6178972;28;20462;-79
2023/06/18 07:12:37;;;;;;;8.75;7.25;;;;;;;;;;6188074;28;20454;-80
2023/06/18 07:15:38;;;;;;;8.25;6.90;;;;;;;;;;6186496;28;20050;-80
2023/06/18 07:18:40;;;;;;;7.93;7.13;;;;;;;;;;6185462;28;20046;-77
2023/06/18 07:21:42;;;;;;;10.70;7.82;;;;;;;;;;6179342;28;20043;-77
2023/06/18 07:24:43;;;;;;;8.77;6.97;;;;;;;;;;6203341;28;20129;-79
2023/06/18 07:27:45;;;;;;;9.35;7.80;;;;;;;;;;6204152;28;20045;-79
2023/06/18 07:30:47;;;;;;;9.05;6.88;;;;;;;;;;6204728;28;20057;-79
2023/06/18 07:33:48;;;;;;;8.82;7.50;;;;;;;;;;6199582;28;20504;-79
2023/06/18 07:36:50;;;;;;;8.18;7.38;;;;;;;;;;6186189;28;20525;-79
2023/06/18 07:39:54;;;;;;;8.85;7.95;;;;;;;;;;6203940;28;20049;-80
2023/06/18 07:42:55;;;;;;;8.77;7.78;;;;;;;;;;6184532;28;20076;-80
2023/06/18 07:45:58;;;;;;;9.15;7.80;;;;;;;;;;6198623;28;20053;-79
2023/06/18 07:49:00;;;;;;;;;;;;;;;;;;6176886;28;20056;-79
2023/06/18 07:52:02;;;;;;;8.05;7.25;;;;;;;;;;6196338;28;19948;-79
2023/06/18 07:55:04;;;;;;;8.55;6.97;;;;;;;;;;6198973;28;20517;-79
2023/06/18 07:58:06;;;;;;;8.65;6.72;;;;;;;;;;6181544;28;20137;-78
2023/06/18 08:01:07;;;;;;;7.88;7.07;;;;;;;;;;6200924;28;20042;-79
2023/06/18 08:04:09;;;;;;;9.68;7.15;;;;;;;;;;6198270;28;20523;-79
2023/06/18 08:07:11;;;;;;;10.40;6.63;;;;;;;;;;6201509;28;20064;-80
2023/06/18 08:10:12;;;;;;;7.47;6.50;;;;;;;;;;6188312;28;20049;-78
2023/06/18 08:13:14;;;;;;;8.82;7.20;;;;;;;;;;6199231;28;20046;-78
2023/06/18 08:16:17;;;;;;;7.83;7.00;;;;;;;;;;6202489;28;20053;-79
2023/06/18 08:19:19;;;;;;;8.32;7.15;;;;;;;;;;6201035;28;20052;-79
2023/06/18 08:22:21;;;;;;;7.20;6.50;;;;;;;;;;6199416;28;20050;-79
2023/06/18 08:25:22;;;;;;;6.80;6.03;;;;;;;;;;6161757;28;20058;-78
2023/06/18 08:28:26;;;;;;;7.30;6.60;;;;;;;;;;6170589;28;20042;-80
2023/06/18 08:31:29;;;;;;;6.78;6.18;;;;;;;;;;6183861;28;20522;-80
2023/06/18 08:34:36;;;;;;;7.90;6.30;;;;;;;;;;6183847;28;20397;-81
2023/06/18 08:37:38;;;;;;;8.23;6.93;;;;;;;;;;6194416;28;20504;-81
2023/06/18 08:40:51;;;;;;;7.50;6.63;;;;;;;;;;6185666;28;20057;-82
2023/06/18 08:43:53;;;;;;;6.88;6.18;;;;;;;;;;6201605;28;20152;-79
2023/06/18 08:47:00;;;;;;;7.65;6.20;;;;;;;;;;6164970;28;20061;-79
2023/06/18 08:50:02;;;;;;;7.25;6.43;;;;;;;;;;6203285;28;20072;-81
2023/06/18 08:53:15;;;;;;;7.03;6.32;;;;;;;;;;6195485;28;20038;-78
2023/06/18 08:56:23;;;;;;;7.80;6.15;;;;;;;;;;6181011;28;20523;-80
2023/06/18 08:59:26;;;;;;;6.55;5.95;;;;;;;;;;6182851;28;20045;-79
2023/06/18 09:02:28;;;;;;;7.88;6.63;;;;;;;;;;6190100;28;20479;-79
2023/06/18 09:05:31;;;;;;;6.88;6.18;;;;;;;;;;6205233;28;20140;-79
2023/06/18 09:08:35;;;;;;;6.93;6.10;;;;;;;;;;6184907;28;20563;-80
2023/06/18 09:11:36;;;;;;;7.10;6.45;;;;;;;;;;6195198;28;20203;-79
2023/06/18 09:14:38;;;;;;;7.22;6.53;;;;;;;;;;6202759;28;20050;-80
2023/06/18 09:17:48;;;;;;;6.82;6.13;;;;;;;;;;6190425;28;20038;-79
2023/06/18 09:20:52;;;;;;;7.45;6.03;;;;;;;;;;6201466;28;20331;-79
2023/06/18 09:23:54;;;;;;;6.65;6.05;;;;;;;;;;6201457;28;20046;-79
2023/06/18 09:27:04;;;;;;;7.78;6.47;;;;;;;;;;6202345;28;20053;-79
2023/06/18 09:30:07;;;;;;;6.75;6.05;;;;;;;;;;6204891;28;20046;-79
2023/06/18 09:33:11;;;;;;;;;;;;;;;;;;6189765;28;20046;-79
2023/06/18 09:36:13;;;;;;;6.00;5.40;;;;;;;;;;6203538;28;19921;-80
2023/06/18 09:39:20;;;;;;;9.15;5.82;;;;;;;;;;6199731;28;20125;-79
2023/06/18 09:42:29;;;;;;;7.65;6.22;;;;;;;;;;6209222;28;20045;-81
2023/06/18 09:45:31;;;;;;;6.60;6.00;;;;;;;;;;6197503;28;20050;-81
2023/06/18 09:48:39;;;;;;;6.88;6.18;;;;;;;;;;6199925;28;20061;-79
2023/06/18 09:51:41;;;;;;;7.43;6.35;;;;;;;;;;6202620;28;20178;-79
2023/06/18 09:54:43;;;;;;;7.13;5.65;;;;;;;;;;6188213;28;20397;-79
2023/06/18 09:57:48;;;;;;;;;;;;;;;;;;6199140;28;20050;-79
2023/06/18 10:01:02;;;;;;;6.28;5.68;;;;;;;;;;6205445;28;20695;-79
2023/06/18 10:04:04;;;;;;;6.78;6.18;;;;;;;;;;6204528;28;20176;-79
2023/06/18 10:07:15;;;;;;;8.57;5.68;;;;;;;;;;6169179;28;20047;-78
2023/06/18 10:10:18;;;;;;;;;;;;;;;;;;6202041;28;20425;-78
2023/06/18 10:13:21;;;;;;;6.07;5.57;;;;;;;;;;6203710;28;20387;-80
2023/06/18 10:16:26;;;;;;;7.10;5.68;;;;;;;;;;6190277;28;20528;-79
2023/06/18 10:19:33;;;;;;;6.10;5.50;;;;;;;;;;6198001;28;20069;-80
2023/06/18 10:22:41;;;;;;;6.65;5.72;;;;;;;;;;6203150;28;20511;-79
2023/06/18 10:25:43;;;;;;;6.45;5.82;;;;;;;;;;6199412;28;20061;-80
2023/06/18 10:28:45;;;;;;;6.60;5.43;;;;;;;;;;6207390;28;20046;-80
2023/06/18 10:31:46;;;;;;;6.35;5.75;;;;;;;;;;6200332;28;20049;-80
2023/06/18 10:34:50;;;;;;;6.60;5.80;;;;;;;;;;6175563;28;21545;-79
2023/06/18 10:37:52;;;;;;;7.00;6.30;;;;;;;;;;6183242;28;20077;-79
2023/06/18 10:41:13;;;;;;;6.18;5.15;;;;;;;;;;6201012;28;20625;-80
2023/06/18 10:44:15;;;;;;;6.40;5.80;;;;;;;;;;6197669;28;20393;-80
2023/06/18 10:47:25;;;;;;;8.07;5.82;;;;;;;;;;6184061;28;20049;-80
2023/06/18 10:50:27;;;;;;;6.65;6.00;;;;;;;;;;6196641;28;20723;-79
2023/06/18 10:53:29;;;;;;;6.40;5.80;;;;;;;;;;6198217;28;20078;-79
2023/06/18 10:56:36;;;;;;;5.80;5.30;;;;;;;;;;6188014;28;20413;-79
2023/06/18 10:59:46;;;;;;;5.78;5.28;;;;;;;;;;6192827;28;20118;-80
2023/06/18 11:02:51;;;;;;;6.18;5.57;;;;;;;;;;6201869;28;20100;-79
2023/06/18 11:05:53;;;;;;;6.35;5.75;;;;;;;;;;6202707;28;20125;-79
2023/06/18 11:08:55;;;;;;;7.03;5.95;;;;;;;;;;6198559;28;20133;-79
2023/06/18 11:11:57;;;;;;;6.30;5.70;;;;;;;;;;6194166;28;20065;-80
2023/06/18 11:15:18;;;;;;;6.88;6.03;;;;;;;;;;6188937;28;20128;-79
2023/06/18 11:18:25;;;;;;;7.00;6.30;;;;;;;;;;6183049;28;20132;-79
2023/06/18 11:21:27;;;;;;;6.38;5.78;;;;;;;;;;6198892;28;20054;-79
2023/06/18 11:24:29;;;;;;;13.30;5.75;;;;;;;;;;6194918;28;20505;-79
2023/06/18 11:27:34;;;;;;;6.95;6.15;;;;;;;;;;6191849;28;20052;-79
2023/06/18 11:30:36;;;;;;;6.18;5.68;;;;;;;;;;6183322;28;20058;-79
2023/06/18 11:33:38;;;;;;;6.65;6.00;;;;;;;;;;6180710;28;20419;-79
2023/06/18 11:36:41;;;;;;;6.55;5.95;;;;;;;;;;6193140;28;20049;-79
2023/06/18 11:39:43;;;;;;;6.78;5.82;;;;;;;;;;6202275;28;20054;-80
2023/06/18 11:42:50;;;;;;;7.10;6.40;;;;;;;;;;6198912;28;20050;-80
2023/06/18 11:45:53;;;;;;;6.63;6.03;;;;;;;;;;6183774;28;20042;-80
2023/06/18 11:48:55;;;;;;;6.60;5.78;;;;;;;;;;6200880;28;21916;-79
2023/06/18 11:51:58;;;;;;;6.57;5.97;;;;;;;;;;6183955;28;20046;-79
2023/06/18 11:55:04;;;;;;;7.55;5.72;;;;;;;;;;6195036;28;20046;-79
2023/06/18 11:58:06;;;;;;;7.10;5.70;;;;;;;;;;6200364;28;20428;-79
2023/06/18 12:01:07;;;;;;;6.55;5.82;;;;;;;;;;6198713;28;20049;-79
2023/06/18 12:04:09;;;;;;;6.45;5.85;;;;;;;;;;6183460;28;20637;-79
2023/06/18 12:07:22;;;;;;;6.68;6.10;;;;;;;;;;6185297;28;20504;-79
2023/06/18 12:10:24;;;;;;;7.18;6.18;;;;;;;;;;6199071;28;20078;-79
2023/06/18 12:13:39;;;;;;;6.93;6.20;;;;;;;;;;6199990;28;20053;-79
2023/06/18 12:16:45;;;;;;;7.32;5.95;;;;;;;;;;6206057;28;20132;-80
2023/06/18 12:19:52;;;;;;;6.88;6.18;;;;;;;;;;6201485;28;20513;-80
2023/06/18 12:22:59;;;;;;;6.85;6.25;;;;;;;;;;6198708;28;20101;-79
2023/06/18 12:26:00;;;;;;;6.40;5.80;;;;;;;;;;6185501;28;20128;-79
2023/06/18 12:29:05;;;;;;;7.18;5.70;;;;;;;;;;6207589;28;20088;-80
2023/06/18 12:32:11;;;;;;;9.48;8.45;;;;;;;;;;6198770;28;20536;-79
2023/06/18 12:35:21;;;;;;;6.18;5.68;;;;;;;;;;6191793;28;20092;-79
2023/06/18 12:38:23;;;;;;;8.80;8.00;;;;;;;;;;6202293;28;20041;-79
2023/06/18 12:41:35;;;;;;;6.00;5.50;;;;;;;;;;6184955;28;20077;-79
2023/06/18 12:44:38;;;;;;;6.38;5.88;;;;;;;;;;6201389;28;20072;-79
2023/06/18 12:47:49;;;;;;;5.80;5.30;;;;;;;;;;6192226;28;20125;-79
2023/06/18 12:50:53;;;;;;;6.13;5.63;;;;;;;;;;6202023;28;20154;-80
2023/06/18 12:53:54;;;;;;;7.07;5.88;;;;;;;;;;6202857;28;20524;-79
2023/06/18 12:56:58;;;;;;;6.65;6.05;;;;;;;;;;6200851;28;20050;-79
2023/06/18 13:00:00;;;;;;;6.63;6.10;;;;;;;;;;6201375;28;20120;-79
2023/06/18 13:03:02;;;;;;;6.63;5.93;;;;;;;;;;6209262;28;20042;-79
2023/06/18 13:06:03;;;;;;;6.97;6.28;;;;;;;;;;6173143;28;20123;-80
2023/06/18 13:09:05;;;;;;;6.28;5.78;;;;;;;;;;6200823;28;20045;-79
2023/06/18 13:12:08;;;;;;;6.95;5.75;;;;;;;;;;6197286;28;20038;-79
2023/06/18 13:15:10;;;;;;;7.00;6.30;;;;;;;;;;6200693;28;20492;-79
2023/06/18 13:18:13;;;;;;;6.63;5.90;;;;;;;;;;6199422;28;20030;-80
2023/06/18 13:21:15;;;;;;;7.28;6.05;;;;;;;;;;6182726;28;20089;-79
2023/06/18 13:24:16;;;;;;;6.72;6.13;;;;;;;;;;6193610;28;20061;-80
2023/06/18 13:27:19;;;;;;;;;;;;;;;;;;6208451;28;20046;-79
2023/06/18 13:30:20;;;;;;;6.80;6.20;;;;;;;;;;6200475;28;19925;-79
2023/06/18 13:33:23;;;;;;;6.25;5.65;;;;;;;;;;6194768;28;20050;-79
2023/06/18 13:36:24;;;;;;;6.97;5.85;;;;;;;;;;6203311;28;20116;-79
2023/06/18 13:39:26;;;;;;;9.30;5.80;;;;;;;;;;6201326;28;20058;-79
2023/06/18 13:42:28;;;;;;;6.03;5.53;;;;;;;;;;6201531;28;20401;-80
2023/06/18 13:45:30;;;;;;;;;;;;;;;;;;6186186;28;20073;-79
2023/06/18 13:48:32;;;;;;;6.28;5.65;;;;;;;;;;6186600;28;19925;-81
2023/06/18 13:51:33;;;;;;;;;;;;;;;;;;6199018;28;20046;-79
2023/06/18 13:54:35;;;;;;;5.47;5.03;;;;;;;;;;6201264;28;20020;-79
2023/06/18 13:57:37;;;;;;;6.63;6.03;;;;;;;;;;6215428;28;20042;-79
2023/06/18 14:00:39;;;;;;;6.43;5.82;;;;;;;;;;6207885;28;20088;-79
2023/06/18 14:03:41;;;;;;;5.70;5.20;;;;;;;;;;6186331;28;20416;-80
2023/06/18 14:06:43;;;;;;;;;;;;;;;;;;6182927;28;20057;-79
2023/06/18 14:09:44;;;;;;;6.53;5.93;;;;;;;;;;6193674;28;20413;-79
2023/06/18 14:12:46;;;;;;;6.72;6.13;;;;;;;;;;6190535;28;20057;-79
2023/06/18 14:15:48;;;;;;;8.48;6.03;;;;;;;;;;6201146;28;20053;-79
2023/06/18 14:18:49;;;;;;;6.75;6.15;;;;;;;;;;6194001;28;20052;-79
2023/06/18 14:21:52;;;;;;;6.97;6.35;;;;;;;;;;6200516;28;20117;-79
2023/06/18 14:24:55;;;;;;;7.35;6.65;;;;;;;;;;6201739;28;20066;-79
2023/06/18 14:27:58;;;;;;;6.90;6.20;;;;;;;;;;6186243;28;20470;-79
2023/06/18 14:31:00;;;;;;;6.00;5.50;;;;;;;;;;6202229;28;20049;-79
2023/06/18 14:34:01;;;;;;;6.53;5.93;;;;;;;;;;6179966;28;20046;-80
2023/06/18 14:37:10;;;;;;;6.78;5.72;;;;;;;;;;6206646;28;20144;-79
2023/06/18 14:40:13;;;;;;;20.27;6.55;;;;;;;;;;6186448;28;20085;-79
2023/06/18 14:43:14;;;;;;;6.35;5.80;;;;;;;;;;6201463;28;20042;-79
2023/06/18 14:46:17;;;;;;;5.72;5.25;;;;;;;;;;6183640;28;20415;-79
2023/06/18 14:49:18;;;;;;;5.97;5.40;;;;;;;;;;6188157;28;20475;-79
2023/06/18 14:52:22;;;;;;;6.75;6.10;;;;;;;;;;6202496;28;20046;-80
2023/06/18 14:55:23;;;;;;;6.72;5.60;;;;;;;;;;6182434;28;20520;-80
2023/06/18 14:58:26;;;;;;;6.95;5.38;;;;;;;;;;6186410;28;20037;-79
2023/06/18 15:01:28;;;;;;;7.15;4.90;;;;;;;;;;6201877;28;20218;-81
2023/06/18 15:04:29;;;;;;;5.60;4.65;;;;;;;;;;6201184;28;20101;-80
2023/06/18 15:07:31;;;;;;;6.55;5.95;;;;;;;;;;6198291;28;20124;-79
2023/06/18 15:10:33;;;;;;;6.88;6.28;;;;;;;;;;6196006;28;20742;-80
2023/06/18 15:13:35;;;;;;;6.97;6.28;;;;;;;;;;6184112;28;20061;-80
2023/06/18 15:16:36;;;;;;;6.90;6.30;;;;;;;;;;6199689;28;20046;-80
2023/06/18 15:19:38;;;;;;;7.10;6.40;;;;;;;;;;6195946;28;20132;-80
2023/06/18 15:22:41;;;;;;;6.97;6.38;;;;;;;;;;6185019;28;21381;-80
2023/06/18 15:25:42;;;;;;;7.20;6.32;;;;;;;;;;6196329;28;20112;-78
2023/06/18 15:28:47;;;;;;;8.05;7.03;;;;;;;;;;6203571;28;20132;-78
2023/06/18 15:31:50;;;;;;;6.88;6.20;;;;;;;;;;6181190;28;20951;-79
2023/06/18 15:34:52;;;;;;;8.23;7.45;;;;;;;;;;6182682;28;20746;-79
2023/06/18 15:37:59;;;;;;;7.63;6.93;;;;;;;;;;6203626;28;20042;-79
2023/06/18 15:41:01;;;;;;;7.75;6.97;;;;;;;;;;6193402;28;20119;-79
2023/06/18 15:44:05;;;;;;;6.90;6.30;;;;;;;;;;6197843;28;20136;-78
2023/06/18 15:47:07;;;;;;;8.05;6.35;;;;;;;;;;6187460;28;20405;-79
2023/06/18 15:50:09;;;;;;;7.70;6.47;;;;;;;;;;6181796;28;20547;-80
2023/06/18 15:53:11;;;;;;;7.40;6.68;;;;;;;;;;6182645;28;20046;-78
2023/06/18 15:56:12;;;;;;;6.80;6.20;;;;;;;;;;6180280;28;20038;-78
2023/06/18 15:59:14;;;;;;;7.07;6.40;;;;;;;;;;6197834;28;20062;-80
2023/06/18 16:02:16;;;;;;;7.22;6.47;;;;;;;;;;6180909;28;20081;-79
2023/06/18 16:05:18;;;;;;;11.02;6.65;;;;;;;;;;6196887;28;20049;-79
2023/06/18 16:08:19;;;;;;;7.53;6.82;;;;;;;;;;6203014;28;20046;-78
2023/06/18 16:11:21;;;;;;;7.78;7.00;;;;;;;;;;6203231;28;20039;-79
2023/06/18 16:14:22;;;;;;;7.15;6.55;;;;;;;;;;6201936;28;20053;-79
2023/06/18 16:17:25;;;;;;;7.32;6.63;;;;;;;;;;6178511;28;20052;-79
2023/06/18 16:20:27;;;;;;;7.10;6.45;;;;;;;;;;6181779;28;20121;-79
2023/06/18 16:23:29;;;;;;;7.75;7.05;;;;;;;;;;6205223;28;20499;-79
2023/06/18 16:26:31;;;;;;;8.00;7.20;;;;;;;;;;6200486;28;20057;-79
2023/06/18 16:29:34;;;;;;;8.18;7.38;;;;;;;;;;6180345;28;20055;-79
2023/06/18 16:32:35;;;;;;;8.23;7.32;;;;;;;;;;6182802;28;20254;-79
2023/06/18 16:35:37;;;;;;;8.85;7.15;;;;;;;;;;6202335;28;20437;-81
2023/06/18 16:38:39;;;;;;;8.02;7.28;;;;;;;;;;6191437;28;20054;-81
2023/06/18 16:41:40;;;;;;;7.85;7.18;;;;;;;;;;6198081;28;20515;-82
2023/06/18 16:44:42;;;;;;;7.70;7.00;;;;;;;;;;6203882;28;20057;-83
2023/06/18 16:47:44;;;;;;;7.70;6.90;;;;;;;;;;6206862;28;20042;-80
2023/06/18 16:50:46;;;;;;;8.30;7.40;;;;;;;;;;6183723;28;20057;-82
2023/06/18 16:53:47;;;;;;;7.78;6.90;;;;;;;;;;6183687;28;20136;-80
2023/06/18 16:56:49;;;;;;;7.90;7.10;;;;;;;;;;6199783;28;20046;-84
2023/06/18 16:59:51;;;;;;;7.93;7.22;;;;;;;;;;6208212;28;20046;-81
2023/06/18 17:02:53;;;;;;;8.90;7.20;;;;;;;;;;6197553;28;20057;-79
2023/06/18 17:05:57;;;;;;;7.55;6.75;;;;;;;;;;6183172;28;20141;-80
2023/06/18 17:08:59;;;;;;;7.57;6.88;;;;;;;;;;6199128;28;20072;-79
2023/06/18 17:12:01;;;;;;;;;;;;;;;;;;6199857;28;20042;-80
2023/06/18 17:15:03;;;;;;;7.53;6.72;;;;;;;;;;6203086;28;20014;-79
2023/06/18 17:18:05;;;;;;;7.60;6.90;;;;;;;;;;6184218;28;20054;-81
2023/06/18 17:21:07;;;;;;;8.05;6.55;;;;;;;;;;6181986;28;20081;-80
2023/06/18 17:24:09;;;;;;;7.60;6.90;;;;;;;;;;6205928;28;20092;-80
2023/06/18 17:27:11;;;;;;;7.82;6.95;;;;;;;;;;6204307;28;20136;-82
2023/06/18 17:30:13;;;;;;;9.73;7.55;;;;;;;;;;6184174;28;20053;-79
2023/06/18 17:33:15;;;;;;;8.57;6.80;;;;;;;;;;6199350;28;20496;-82
2023/06/18 17:36:19;;;;;;;9.43;7.35;;;;;;;;;;6186652;28;20052;-82
2023/06/18 17:39:22;;;;;;;8.32;6.57;;;;;;;;;;6204050;28;20126;-80
2023/06/18 17:42:24;;;;;;;8.80;7.05;;;;;;;;;;6201327;28;20106;-80
2023/06/18 17:45:28;;;;;;;9.05;6.55;;;;;;;;;;6206331;28;20512;-81
2023/06/18 17:48:29;;;;;;;7.85;6.95;;;;;;;;;;6188393;28;20050;-79
2023/06/18 17:51:31;;;;;;;8.48;6.95;;;;;;;;;;6186103;28;20057;-78
2023/06/18 17:54:33;;;;;;;7.40;6.60;;;;;;;;;;6180496;28;20053;-80
2023/06/18 17:57:37;;;;;;;7.28;6.57;;;;;;;;;;6192341;28;20401;-80
2023/06/18 18:00:39;;;;;;;7.50;6.78;;;;;;;;;;6187387;28;20116;-80
2023/06/18 18:03:41;;;;;;;6.95;6.25;;;;;;;;;;6187798;28;20038;-80
2023/06/18 18:06:45;;;;;;;7.25;6.55;;;;;;;;;;6184136;28;20057;-80
2023/06/18 18:09:47;;;;;;;7.50;6.22;;;;;;;;;;6186131;28;20041;-80
2023/06/18 18:12:48;;;;;;;7.70;6.90;;;;;;;;;;6204650;28;20039;-80
2023/06/18 18:15:50;;;;;;;7.00;6.35;;;;;;;;;;6186787;28;20123;-79
2023/06/18 18:18:52;;;;;;;7.50;6.43;;;;;;;;;;6191258;28;20058;-79